createdAt,value
2018-12-11T00:02:33.987Z,101107.92
2018-12-11T00:05:10.564Z,101111.95
2018-12-11T00:07:48.243Z,101120.87
2018-12-11T00:10:35.407Z,101119.53
2018-12-11T00:13:08.298Z,101123.02
2018-12-11T00:15:45.454Z,101118.33
2018-12-11T00:18:26.297Z,101126.34
2018-12-11T00:21:00.411Z,101132.55
2018-12-11T00:23:35.850Z,101129.86
2018-12-11T00:26:19.385Z,101131.61
2018-12-11T00:28:57.270Z,101124.03
2018-12-11T00:31:40.043Z,101129.43
2018-12-11T00:34:16.942Z,101127.63
2018-12-11T00:36:53.922Z,101127.75
2018-12-11T00:39:34.996Z,101130.56
2018-12-11T00:42:21.929Z,101126.91
2018-12-11T00:44:56.828Z,101122.66
2018-12-11T00:47:40.125Z,101123.09
2018-12-11T00:50:21.341Z,101129.85
2018-12-11T00:52:58.779Z,101131.80
2018-12-11T00:55:34.727Z,101133.95
2018-12-11T00:58:09.114Z,101133.98
2018-12-11T01:00:46.878Z,101135.09
2018-12-11T01:03:24.812Z,101135.13
2018-12-11T01:06:03.215Z,101133.20
2018-12-11T01:08:37.283Z,101141.92
2018-12-11T01:11:12.220Z,101151.80
2018-12-11T01:13:56.293Z,101153.70
2018-12-11T01:16:35.854Z,101156.82
2018-12-11T01:22:34.117Z,101153.02
2018-12-11T01:25:19.054Z,101157.39
2018-12-11T01:28:09.867Z,101171.36
2018-12-11T01:30:45.964Z,101169.53
2018-12-11T01:33:26.587Z,101171.72
2018-12-11T01:36:04.772Z,101180.40
2018-12-11T01:42:14.595Z,101176.67
2018-12-11T01:44:52.730Z,101189.73
2018-12-11T01:47:30.673Z,101186.78
2018-12-11T01:50:09.508Z,101197.16
2018-12-11T01:53:06.220Z,101201.19
2018-12-11T01:55:42.154Z,101194.67
2018-12-11T01:58:22.464Z,101199.95
2018-12-11T02:00:58.083Z,101192.72
2018-12-11T02:03:35.838Z,101197.06
2018-12-11T02:06:11.588Z,101207.22
2018-12-11T02:08:53.844Z,101208.42
2018-12-11T02:11:39.332Z,101202.57
2018-12-11T02:14:17.610Z,101206.06
2018-12-11T02:16:54.943Z,101211.57
2018-12-11T02:19:31.528Z,101214.42
2018-12-11T02:22:13.733Z,101217.54
2018-12-11T02:24:53.040Z,101216.68
2018-12-11T02:27:31.270Z,101222.08
2018-12-11T02:30:08.958Z,101219.20
2018-12-11T02:32:52.492Z,101221.34
2018-12-11T02:35:31.478Z,101225.70
2018-12-11T02:38:08.052Z,101213.01
2018-12-11T02:40:57.211Z,101224.48
2018-12-11T02:43:33.818Z,101227.11
2018-12-11T02:46:10.111Z,101229.58
2018-12-11T02:48:48.361Z,101230.66
2018-12-11T02:51:26.256Z,101237.73
2018-12-11T02:54:00.915Z,101236.35
2018-12-11T02:56:37.617Z,101237.05
2018-12-11T02:59:14.391Z,101237.13
2018-12-11T03:01:54.420Z,101238.45
2018-12-11T03:04:35.715Z,101241.57
2018-12-11T03:07:11.901Z,101237.33
2018-12-11T03:09:48.841Z,101250.52
2018-12-11T03:12:24.186Z,101249.59
2018-12-11T03:15:00.267Z,101252.65
2018-12-11T03:17:37.952Z,101251.46
2018-12-11T03:20:15.041Z,101251.34
2018-12-11T03:22:51.452Z,101257.09
2018-12-11T03:25:28.297Z,101258.41
2018-12-11T03:28:03.985Z,101260.78
2018-12-11T03:30:39.166Z,101263.34
2018-12-11T03:33:16.814Z,101265.13
2018-12-11T03:35:56.216Z,101262.50
2018-12-11T03:38:51.621Z,101266.48
2018-12-11T03:41:33.396Z,101265.94
2018-12-11T03:44:11.814Z,101282.70
2018-12-11T03:46:48.300Z,101276.02
2018-12-11T03:49:19.713Z,101275.23
2018-12-11T03:51:51.142Z,101271.11
2018-12-11T03:54:21.876Z,101273.84
2018-12-11T03:56:52.458Z,101275.75
2018-12-11T03:59:23.195Z,101267.00
2018-12-11T04:01:54.110Z,101276.20
2018-12-11T04:04:30.956Z,101275.28
2018-12-11T04:07:04.304Z,101269.98
2018-12-11T04:13:53.268Z,101281.59
2018-12-11T04:16:29.921Z,101281.63
2018-12-11T04:19:06.153Z,101285.46
2018-12-11T04:21:41.655Z,101292.91
2018-12-11T04:24:13.651Z,101297.73
2018-12-11T04:26:52.569Z,101300.81
2018-12-11T04:29:26.568Z,101303.09
2018-12-11T04:32:00.828Z,101301.63
2018-12-11T04:34:36.990Z,101310.95
2018-12-11T04:37:19.884Z,101315.80
2018-12-11T04:39:53.775Z,101317.23
2018-12-11T04:42:37.886Z,101317.55
2018-12-11T04:45:24.792Z,101316.14
2018-12-11T04:48:04.524Z,101321.45
2018-12-11T04:50:42.526Z,101325.30
2018-12-11T04:53:24.135Z,101328.09
2018-12-11T04:56:07.594Z,101330.28
2018-12-11T04:58:46.052Z,101340.49
2018-12-11T05:01:22.668Z,101342.72
2018-12-11T05:03:59.570Z,101340.11
2018-12-11T05:06:51.387Z,101344.96
2018-12-11T05:09:34.430Z,101348.64
2018-12-11T05:12:15.321Z,101357.48
2018-12-11T05:14:59.494Z,101350.19
2018-12-11T05:17:41.079Z,101355.98
2018-12-11T05:20:36.326Z,101364.97
2018-12-11T05:23:20.548Z,101356.98
2018-12-11T05:26:00.593Z,101362.67
2018-12-11T05:28:46.606Z,101357.47
2018-12-11T05:34:41.113Z,101368.09
2018-12-11T05:37:21.999Z,101371.14
2018-12-11T05:40:05.355Z,101375.53
2018-12-11T06:01:33.814Z,101394.80
2018-12-11T06:04:16.138Z,101408.45
2018-12-11T06:06:56.513Z,101410.78
2018-12-11T06:09:53.719Z,101412.82
2018-12-11T06:12:36.949Z,101410.14
2018-12-11T06:15:16.433Z,101413.19
2018-12-11T06:18:00.435Z,101412.23
2018-12-11T06:20:41.094Z,101413.54
2018-12-11T06:23:18.000Z,101412.75
2018-12-11T06:25:56.145Z,101420.63
2018-12-11T06:28:36.271Z,101414.86
2018-12-11T06:31:14.321Z,101419.25
2018-12-11T06:33:53.393Z,101426.84
2018-12-11T06:39:36.304Z,101441.45
2018-12-11T06:42:13.487Z,101441.13
2018-12-11T06:44:50.274Z,101438.92
2018-12-11T06:47:35.962Z,101450.33
2018-12-11T06:50:26.852Z,101454.74
2018-12-11T06:53:13.912Z,101452.11
2018-12-11T06:56:08.906Z,101449.41
2018-12-11T06:58:48.125Z,101459.31
2018-12-11T07:01:31.962Z,101467.76
2018-12-11T07:09:50.017Z,101468.07
2018-12-11T07:12:31.841Z,101477.41
2018-12-11T07:15:10.654Z,101485.33
2018-12-11T07:17:50.201Z,101476.91
2018-12-11T07:20:31.419Z,101489.81
2018-12-11T07:23:10.084Z,101484.00
2018-12-11T07:25:55.301Z,101483.54
2018-12-11T07:31:14.814Z,101479.54
2018-12-11T07:33:52.960Z,101491.58
2018-12-11T07:36:33.307Z,101492.35
2018-12-11T07:39:09.921Z,101503.00
2018-12-11T07:41:55.060Z,101502.47
2018-12-11T07:44:32.101Z,101507.02
2018-12-11T07:47:14.685Z,101508.78
2018-12-11T07:49:50.822Z,101514.92
2018-12-11T07:52:34.065Z,101525.37
2018-12-11T07:55:13.900Z,101527.38
2018-12-11T07:57:55.029Z,101529.46
2018-12-11T08:00:33.619Z,101526.48
2018-12-11T08:03:30.567Z,101542.44
2018-12-11T08:06:14.833Z,101541.02
2018-12-11T08:08:56.907Z,101536.58
2018-12-11T08:11:41.962Z,101546.87
2018-12-11T08:14:27.312Z,101542.05
2018-12-11T08:17:17.439Z,101537.75
2018-12-11T08:19:58.102Z,101542.56
2018-12-11T08:25:51.371Z,101554.80
2018-12-11T08:28:32.495Z,101566.02
2018-12-11T08:31:11.656Z,101555.45
2018-12-11T08:33:51.223Z,101567.31
2018-12-11T08:36:33.748Z,101573.52
2018-12-11T08:39:16.117Z,101570.24
2018-12-11T08:42:07.575Z,101574.32
2018-12-11T08:48:15.625Z,101575.01
2018-12-11T08:51:04.981Z,101572.45
2018-12-11T08:53:53.007Z,101581.79
2018-12-11T08:56:50.589Z,101580.44
2018-12-11T08:59:35.390Z,101584.92
2018-12-11T09:02:30.946Z,101592.34
2018-12-11T09:05:22.141Z,101597.59
2018-12-11T09:11:13.563Z,101610.44
2018-12-11T09:13:57.059Z,101598.00
2018-12-11T09:16:50.014Z,101602.08
2018-12-11T09:19:40.546Z,101596.73
2018-12-11T09:22:27.716Z,101603.83
2018-12-11T09:28:17.100Z,101599.30
2018-12-11T09:31:15.048Z,101612.20
2018-12-11T09:34:00.294Z,101609.50
2018-12-11T09:36:50.228Z,101620.13
2018-12-11T10:02:54.499Z,101628.70
2018-12-11T10:09:00.735Z,101631.80
2018-12-11T10:17:58.544Z,101629.41
2018-12-11T10:20:48.215Z,101626.14
2018-12-11T10:26:54.835Z,101636.28
2018-12-11T10:29:56.481Z,101637.01
2018-12-11T10:32:36.156Z,101641.41
2018-12-11T10:35:14.502Z,101639.19
2018-12-11T10:37:59.040Z,101640.88
2018-12-11T10:53:22.327Z,101645.90
2018-12-11T10:56:17.315Z,101651.38
2018-12-11T10:58:59.726Z,101653.39
2018-12-11T11:04:55.649Z,101645.80
2018-12-11T11:07:33.653Z,101644.55
2018-12-11T11:10:16.444Z,101653.87
2018-12-11T11:12:53.126Z,101658.84
2018-12-11T11:15:34.396Z,101657.44
2018-12-11T11:18:30.211Z,101660.02
2018-12-11T11:21:07.148Z,101659.25
2018-12-11T11:23:58.884Z,101657.08
2018-12-11T11:29:57.787Z,101659.20
2018-12-11T11:32:53.115Z,101668.05
2018-12-11T11:35:34.906Z,101671.94
2018-12-11T11:38:24.160Z,101679.99
2018-12-11T11:44:19.345Z,101682.58
2018-12-11T11:47:09.584Z,101679.73
2018-12-11T11:49:44.929Z,101686.16
2018-12-11T11:52:23.882Z,101679.59
2018-12-11T11:55:19.587Z,101689.11
2018-12-11T12:01:14.502Z,101695.83
2018-12-11T12:03:58.386Z,101692.81
2018-12-11T12:06:33.969Z,101694.33
2018-12-11T12:09:18.687Z,101699.19
2018-12-11T21:32:45.659Z,102146.50
2018-12-11T21:35:28.972Z,102145.55
2018-12-11T21:38:06.896Z,102148.59
2018-12-11T21:40:56.433Z,102144.58
2018-12-11T21:46:51.043Z,102159.98
2018-12-11T21:49:28.003Z,102154.68
2018-12-11T21:52:23.526Z,102163.57
2018-12-11T21:55:08.122Z,102159.15
2018-12-11T21:57:41.982Z,102164.48
2018-12-11T22:00:25.790Z,102159.59
2018-12-11T22:03:07.529Z,102163.16
2018-12-11T22:05:58.751Z,102170.20
2018-12-11T22:08:38.319Z,102173.36
2018-12-11T22:14:28.377Z,102172.47
2018-12-11T22:17:00.461Z,102181.41
2018-12-11T22:19:37.445Z,102179.71
2018-12-11T22:22:27.142Z,102178.81
2018-12-11T22:25:10.455Z,102182.33
2018-12-11T22:27:47.851Z,102188.08
2018-12-11T22:30:25.256Z,102186.34
2018-12-11T22:36:17.762Z,102192.98
2018-12-11T22:41:59.993Z,102196.03
2018-12-11T22:44:41.781Z,102202.70
2018-12-11T22:47:20.339Z,102202.73
2018-12-11T22:49:57.484Z,102211.16
2018-12-11T22:59:15.722Z,102210.69
2018-12-11T23:01:46.681Z,102216.45
2018-12-11T23:04:29.890Z,102216.89
2018-12-11T23:07:19.366Z,102220.92
2018-12-11T23:10:16.778Z,102217.80
2018-12-11T23:12:49.439Z,102214.66
2018-12-11T23:18:28.094Z,102224.89
2018-12-11T23:21:06.388Z,102228.88
2018-12-11T23:23:47.673Z,102222.66
2018-12-11T23:26:22.309Z,102222.27
2018-12-11T23:28:59.195Z,102226.66
2018-12-11T23:31:44.371Z,102235.09
2018-12-11T23:34:15.409Z,102233.78
2018-12-11T23:37:11.308Z,102244.00
2018-12-11T23:39:54.637Z,102247.08
2018-12-11T23:42:44.049Z,102250.63
2018-12-11T23:45:20.890Z,102246.66
